Terminal Aerodrome Forecast
Issued by NWS

Home | Current Version | Previous Version | Text Only | Print | Product List | Glossary On
Versions: 1 2 3 4 5 6 7 8 9 10 11 12 13 14 15 16 17 18 19 20
000
FTPA31 PHFO 250522
TAFHNY
TAF
PHNY 250522Z 2506/2606 05005KT P6SM SCT017 BKN035
     FM250800 05005KT P6SM FEW022 SCT040
     FM252000 04015KT P6SM SCT020 BKN040=

USA.gov is the U.S. government's official web portal to all federal, state and local government web resources and services.